Time;durP1;ratioP1;P1;durP2;ratioP2;P2;SDS_P1;SDS_P2;PMS_P1;PMS_P2;Temp;Humidity;BMP_temperature;BMP_pressure;BME280_temperature;BME280_humidity;BME280_pressure;Samples;Min_cycle;Max_cycle;Signal;HPM_P1;HPM_P2
2021/12/26 00:04:43;;;;;;;16.73;11.50;;;;;;;;;;10567543;28;20460;-39
2021/12/26 00:09:43;;;;;;;15.10;11.20;;;;;;;;;;10569386;28;20089;-40
2021/12/26 00:14:43;;;;;;;17.37;11.50;;;;;;;;;;10573652;28;20683;-39
2021/12/26 00:19:44;;;;;;;16.15;11.57;;;;;;;;;;10566078;28;20454;-41
2021/12/26 00:24:46;;;;;;;16.83;12.57;;;;;;;;;;10575245;28;20093;-40
2021/12/26 00:29:46;;;;;;;18.33;11.32;;;;;;;;;;10564133;28;20468;-40
2021/12/26 00:34:50;;;;;;;20.45;12.38;;;;;;;;;;10556301;28;20032;-40
2021/12/26 00:39:50;;;;;;;18.13;11.93;;;;;;;;;;10573013;28;20022;-40
2021/12/26 00:44:51;;;;;;;21.27;11.67;;;;;;;;;;10569010;28;20038;-39
2021/12/26 00:49:51;;;;;;;16.48;11.52;;;;;;;;;;10571841;28;20472;-40
2021/12/26 00:54:52;;;;;;;16.77;11.73;;;;;;;;;;10558264;28;20023;-41
2021/12/26 00:59:52;;;;;;;16.50;11.98;;;;;;;;;;10573293;28;20456;-40
2021/12/26 01:04:53;;;;;;;20.17;12.73;;;;;;;;;;10563838;28;20020;-40
2021/12/26 01:09:53;;;;;;;27.08;11.93;;;;;;;;;;10566389;28;20478;-40
2021/12/26 01:14:59;;;;;;;16.95;11.82;;;;;;;;;;10552067;28;20024;-40
2021/12/26 01:20:02;;;;;;;21.55;11.07;;;;;;;;;;10571712;28;20069;-39
2021/12/26 01:25:03;;;;;;;19.08;11.10;;;;;;;;;;10556609;28;20045;-41
2021/12/26 01:30:04;;;;;;;18.55;11.02;;;;;;;;;;10554855;28;20046;-40
2021/12/26 01:35:05;;;;;;;18.10;10.20;;;;;;;;;;10567154;28;20035;-43
2021/12/26 01:40:06;;;;;;;17.13;11.20;;;;;;;;;;10551094;28;20027;-41
2021/12/26 01:45:08;;;;;;;14.43;10.80;;;;;;;;;;10558346;28;20028;-41
2021/12/26 01:50:08;;;;;;;13.40;10.07;;;;;;;;;;10577139;28;20512;-40
2021/12/26 01:55:23;;;;;;;15.65;10.80;;;;;;;;;;10565239;28;20034;-41
2021/12/26 02:00:25;;;;;;;15.70;10.18;;;;;;;;;;10563554;28;20622;-41
2021/12/26 02:05:25;;;;;;;15.75;10.73;;;;;;;;;;10564579;28;20131;-40
2021/12/26 02:10:26;;;;;;;12.37;9.90;;;;;;;;;;10559507;28;20445;-40
2021/12/26 02:15:26;;;;;;;15.70;10.10;;;;;;;;;;10558500;28;20777;-40
2021/12/26 02:31:13;;;;;;;12.82;10.27;;;;;;;;;;10562200;28;20020;-43
2021/12/26 02:36:14;;;;;;;14.13;10.00;;;;;;;;;;10571047;28;20028;-40
2021/12/26 02:41:14;;;;;;;18.70;10.03;;;;;;;;;;10558449;28;20035;-40
2021/12/26 02:46:15;;;;;;;15.50;10.43;;;;;;;;;;10552284;28;20486;-40
2021/12/26 02:51:15;;;;;;;11.03;9.60;;;;;;;;;;10561717;27;20105;-40
2021/12/26 02:56:16;;;;;;;12.50;9.70;;;;;;;;;;10579849;28;20451;-41
2021/12/26 03:01:19;;;;;;;17.38;10.23;;;;;;;;;;10564563;28;21056;-41
2021/12/26 03:06:28;;;;;;;14.55;10.05;;;;;;;;;;10568675;28;20081;-40
2021/12/26 03:11:29;;;;;;;13.85;9.65;;;;;;;;;;10557278;28;20016;-41
2021/12/26 03:16:29;;;;;;;11.85;8.68;;;;;;;;;;10561974;28;20027;-48
2021/12/26 03:21:30;;;;;;;12.20;9.83;;;;;;;;;;10564629;28;20520;-40
2021/12/26 03:26:30;;;;;;;13.50;9.48;;;;;;;;;;10565099;28;20472;-40
2021/12/26 03:31:31;;;;;;;13.43;9.77;;;;;;;;;;10556762;28;20024;-40
2021/12/26 03:36:31;;;;;;;13.43;10.30;;;;;;;;;;10561717;28;20803;-42
2021/12/26 03:41:32;;;;;;;13.23;9.57;;;;;;;;;;10547516;28;20373;-40
2021/12/26 03:46:32;;;;;;;13.35;9.32;;;;;;;;;;10561012;28;20020;-40
2021/12/26 03:51:34;;;;;;;13.07;9.57;;;;;;;;;;10567284;28;20363;-40
2021/12/26 03:56:34;;;;;;;13.50;9.30;;;;;;;;;;10552844;28;20453;-41
2021/12/26 04:01:35;;;;;;;10.77;9.18;;;;;;;;;;10572408;28;20031;-41
2021/12/26 04:06:35;;;;;;;12.40;9.27;;;;;;;;;;10563762;28;20036;-41
2021/12/26 04:11:38;;;;;;;11.25;8.75;;;;;;;;;;10565268;28;20023;-40
2021/12/26 04:16:39;;;;;;;13.40;9.38;;;;;;;;;;10550984;28;20481;-40
2021/12/26 04:21:40;;;;;;;12.20;9.15;;;;;;;;;;10559187;28;20030;-40
2021/12/26 04:26:40;;;;;;;8.80;7.88;;;;;;;;;;10552579;28;20528;-40
2021/12/26 04:31:41;;;;;;;10.48;8.95;;;;;;;;;;10555596;28;20019;-41
2021/12/26 04:36:41;;;;;;;10.60;8.87;;;;;;;;;;10562560;28;20471;-41
2021/12/26 04:41:45;;;;;;;11.20;9.30;;;;;;;;;;10555974;28;20456;-41
2021/12/26 04:46:45;;;;;;;11.68;8.75;;;;;;;;;;10564101;28;20196;-39
2021/12/26 04:51:46;;;;;;;10.88;7.80;;;;;;;;;;10555133;28;20178;-39
2021/12/26 04:56:46;;;;;;;11.23;8.50;;;;;;;;;;10558438;28;20459;-39
2021/12/26 05:01:47;;;;;;;12.32;9.48;;;;;;;;;;10548644;28;20025;-40
2021/12/26 05:06:48;;;;;;;9.82;8.65;;;;;;;;;;10560532;28;20146;-40
2021/12/26 05:11:48;;;;;;;10.55;8.30;;;;;;;;;;10555709;28;20047;-40
2021/12/26 05:16:48;;;;;;;9.85;8.45;;;;;;;;;;10557295;28;20023;-40
2021/12/26 05:21:49;;;;;;;10.33;8.50;;;;;;;;;;10557252;28;20447;-40
2021/12/26 05:26:49;;;;;;;11.57;8.03;;;;;;;;;;10566458;28;20468;-41
2021/12/26 05:31:50;;;;;;;12.40;8.17;;;;;;;;;;10566356;28;20464;-40
2021/12/26 05:36:50;;;;;;;10.70;7.88;;;;;;;;;;10570603;28;20800;-40
2021/12/26 05:41:50;;;;;;;11.57;8.20;;;;;;;;;;10559925;28;20020;-40
2021/12/26 05:46:51;;;;;;;9.90;8.03;;;;;;;;;;10571449;28;20482;-39
2021/12/26 05:51:51;;;;;;;15.00;8.43;;;;;;;;;;10566080;28;20484;-39
2021/12/26 05:56:52;;;;;;;10.20;7.97;;;;;;;;;;10561259;28;20111;-40
2021/12/26 06:01:52;;;;;;;9.68;7.28;;;;;;;;;;10567731;28;20024;-40
2021/12/26 06:06:53;;;;;;;9.13;7.75;;;;;;;;;;10564899;28;20040;-39
2021/12/26 06:11:53;;;;;;;9.70;8.02;;;;;;;;;;10558447;28;20073;-41
2021/12/26 06:16:54;;;;;;;9.77;8.37;;;;;;;;;;10571331;28;20446;-40
2021/12/26 06:21:54;;;;;;;8.87;7.70;;;;;;;;;;10557774;28;20459;-43
2021/12/26 06:26:54;;;;;;;10.27;8.07;;;;;;;;;;10569268;28;20089;-46
2021/12/26 06:31:55;;;;;;;9.00;8.10;;;;;;;;;;10562801;28;20115;-50
2021/12/26 06:36:55;;;;;;;9.27;7.53;;;;;;;;;;10571305;28;20039;-48
2021/12/26 06:41:56;;;;;;;8.70;7.80;;;;;;;;;;10556951;28;20482;-51
2021/12/26 06:46:56;;;;;;;12.75;7.75;;;;;;;;;;10567823;28;20578;-48
2021/12/26 06:51:56;;;;;;;12.77;7.07;;;;;;;;;;10559654;28;20584;-52
2021/12/26 06:56:57;;;;;;;9.15;6.95;;;;;;;;;;10544091;28;20016;-48
2021/12/26 07:01:57;;;;;;;8.73;7.03;;;;;;;;;;10557351;28;20036;-46
2021/12/26 07:06:58;;;;;;;11.13;6.87;;;;;;;;;;10559684;28;20032;-47
2021/12/26 07:11:59;;;;;;;10.35;7.68;;;;;;;;;;10558888;28;20456;-47
2021/12/26 07:16:59;;;;;;;8.85;7.40;;;;;;;;;;10563560;28;20092;-48
2021/12/26 07:22:00;;;;;;;8.23;7.10;;;;;;;;;;10556398;28;20256;-46
2021/12/26 07:27:00;;;;;;;8.23;7.18;;;;;;;;;;10565700;28;20459;-45
2021/12/26 07:32:01;;;;;;;9.90;6.72;;;;;;;;;;10559316;28;20020;-48
2021/12/26 07:37:02;;;;;;;8.67;7.07;;;;;;;;;;10573284;28;20039;-47
2021/12/26 07:42:03;;;;;;;7.82;7.03;;;;;;;;;;10567886;28;20448;-44
2021/12/26 07:47:04;;;;;;;7.75;6.95;;;;;;;;;;10559822;28;20028;-46
2021/12/26 07:52:11;;;;;;;8.10;6.82;;;;;;;;;;10559349;28;20028;-49
2021/12/26 07:57:12;;;;;;;7.75;6.70;;;;;;;;;;10560677;28;20032;-48
2021/12/26 08:02:17;;;;;;;6.63;5.95;;;;;;;;;;10567166;28;20024;-46
2021/12/26 08:07:18;;;;;;;7.50;6.40;;;;;;;;;;10557228;28;20159;-51
2021/12/26 08:12:18;;;;;;;8.07;6.50;;;;;;;;;;10575995;28;20027;-43
2021/12/26 08:17:19;;;;;;;10.23;6.50;;;;;;;;;;10558218;28;20073;-50
2021/12/26 08:22:19;;;;;;;7.80;6.13;;;;;;;;;;10561264;28;20076;-47
2021/12/26 08:27:20;;;;;;;6.43;5.75;;;;;;;;;;10559638;28;20475;-47
2021/12/26 08:32:20;;;;;;;8.65;6.18;;;;;;;;;;10567659;28;20042;-44
2021/12/26 08:37:27;;;;;;;8.70;6.32;;;;;;;;;;10572547;28;20034;-47
2021/12/26 08:42:27;;;;;;;6.80;6.10;;;;;;;;;;10568338;28;20115;-44
2021/12/26 08:47:27;;;;;;;7.93;5.73;;;;;;;;;;10573479;28;20016;-51
2021/12/26 08:52:28;;;;;;;7.57;5.97;;;;;;;;;;10561494;28;20613;-47
2021/12/26 08:57:30;;;;;;;6.90;5.83;;;;;;;;;;10570195;28;20112;-45
2021/12/26 09:02:30;;;;;;;6.70;5.35;;;;;;;;;;10567658;28;20495;-46
2021/12/26 09:07:31;;;;;;;5.95;5.35;;;;;;;;;;10558846;28;20063;-49
2021/12/26 09:12:32;;;;;;;7.07;6.03;;;;;;;;;;10555133;28;20486;-45
2021/12/26 09:17:33;;;;;;;7.57;5.78;;;;;;;;;;10572376;28;20030;-44
2021/12/26 09:22:34;;;;;;;6.75;5.75;;;;;;;;;;10552525;28;20028;-46
2021/12/26 09:27:34;;;;;;;6.78;6.10;;;;;;;;;;10563321;28;20028;-46
2021/12/26 09:32:35;;;;;;;7.90;5.83;;;;;;;;;;10565753;28;20112;-46
2021/12/26 09:37:35;;;;;;;6.20;5.28;;;;;;;;;;10569954;28;21116;-48
2021/12/26 09:42:37;;;;;;;10.35;5.60;;;;;;;;;;10562696;28;20487;-48
2021/12/26 09:47:39;;;;;;;6.93;6.00;;;;;;;;;;10557693;28;20033;-47
2021/12/26 09:52:44;;;;;;;7.43;6.22;;;;;;;;;;10571612;28;21430;-51
2021/12/26 09:57:44;;;;;;;6.05;5.45;;;;;;;;;;10568700;28;20037;-53
2021/12/26 10:02:45;;;;;;;7.50;5.60;;;;;;;;;;10562940;28;20070;-51
2021/12/26 10:07:45;;;;;;;7.35;6.10;;;;;;;;;;10554641;28;20044;-45
2021/12/26 10:12:45;;;;;;;6.77;6.07;;;;;;;;;;10578844;28;20040;-43
2021/12/26 10:17:46;;;;;;;7.07;5.70;;;;;;;;;;10558343;28;20970;-47
2021/12/26 10:22:46;;;;;;;6.80;5.50;;;;;;;;;;10553413;28;20551;-43
2021/12/26 10:27:48;;;;;;;5.70;5.20;;;;;;;;;;10571076;28;20468;-46
2021/12/26 10:32:57;;;;;;;7.90;5.75;;;;;;;;;;10570259;28;20475;-47
2021/12/26 10:37:57;;;;;;;5.75;5.10;;;;;;;;;;10564765;28;20095;-46
2021/12/26 10:42:59;;;;;;;6.30;5.70;;;;;;;;;;10577056;28;20352;-46
2021/12/26 10:48:05;;;;;;;6.68;5.97;;;;;;;;;;10565645;28;20080;-45
2021/12/26 10:53:07;;;;;;;6.55;5.68;;;;;;;;;;10557042;28;20035;-48
2021/12/26 10:58:12;;;;;;;6.20;5.43;;;;;;;;;;10577579;28;20062;-50
2021/12/26 11:03:20;;;;;;;6.40;5.50;;;;;;;;;;10567337;28;20092;-51
2021/12/26 11:08:30;;;;;;;8.63;5.90;;;;;;;;;;10572544;28;20054;-49
2021/12/26 11:13:32;;;;;;;8.07;5.38;;;;;;;;;;10570359;28;20027;-51
2021/12/26 11:18:34;;;;;;;6.32;5.35;;;;;;;;;;10571471;28;20023;-48
2021/12/26 11:23:40;;;;;;;7.20;5.35;;;;;;;;;;10572647;28;20060;-51
2021/12/26 11:28:43;;;;;;;9.57;5.60;;;;;;;;;;10564937;28;20028;-46
2021/12/26 11:33:45;;;;;;;5.85;5.18;;;;;;;;;;10571513;28;20039;-44
2021/12/26 11:38:48;;;;;;;8.10;4.85;;;;;;;;;;10562374;28;20528;-46
2021/12/26 11:44:07;;;;;;;5.28;4.75;;;;;;;;;;10572812;28;20020;-46
2021/12/26 11:49:21;;;;;;;;;;;;;;;;;;10560093;28;20398;-43
2021/12/26 11:54:49;;;;;;;8.77;4.90;;;;;;;;;;10556943;28;19916;-45
2021/12/26 11:59:52;;;;;;;6.37;5.53;;;;;;;;;;10571984;28;20035;-43
2021/12/26 12:05:18;;;;;;;8.07;5.82;;;;;;;;;;10573224;28;20036;-44
2021/12/26 12:10:51;;;;;;;7.78;6.30;;;;;;;;;;10560835;28;20755;-46
2021/12/26 12:15:56;;;;;;;6.88;5.93;;;;;;;;;;10559232;28;20777;-46
2021/12/26 12:21:15;;;;;;;6.18;5.57;;;;;;;;;;10554209;28;20035;-45
2021/12/26 12:26:29;;;;;;;;;;;;;;;;;;10549749;28;20036;-40
2021/12/26 12:31:30;;;;;;;6.93;5.97;;;;;;;;;;10542707;28;20363;-44
2021/12/26 12:36:33;;;;;;;9.48;6.28;;;;;;;;;;10556892;28;20062;-44
2021/12/26 12:41:41;;;;;;;7.38;5.90;;;;;;;;;;10569411;28;20047;-44
2021/12/26 12:47:14;;;;;;;7.63;6.05;;;;;;;;;;10574211;28;20509;-44
2021/12/26 12:52:40;;;;;;;7.20;6.35;;;;;;;;;;10562468;28;20063;-44
2021/12/26 12:57:48;;;;;;;9.80;7.32;;;;;;;;;;10564755;28;20073;-44
2021/12/26 13:02:48;;;;;;;7.55;6.18;;;;;;;;;;10574980;28;20042;-44
2021/12/26 13:07:59;;;;;;;8.52;6.13;;;;;;;;;;10553966;28;20044;-46
2021/12/26 13:13:11;;;;;;;7.45;6.38;;;;;;;;;;10564249;28;20031;-46
2021/12/26 13:18:11;;;;;;;7.38;6.15;;;;;;;;;;10571764;28;20034;-46
2021/12/26 13:23:12;;;;;;;9.13;6.67;;;;;;;;;;10558334;28;20115;-46
2021/12/26 13:28:15;;;;;;;7.72;6.28;;;;;;;;;;10557795;28;20544;-45
2021/12/26 13:33:18;;;;;;;8.30;6.75;;;;;;;;;;10561227;28;20520;-46
2021/12/26 13:38:19;;;;;;;7.93;6.75;;;;;;;;;;10556358;28;20039;-46
2021/12/26 13:43:28;;;;;;;8.50;6.40;;;;;;;;;;10568595;28;20031;-47
2021/12/26 13:48:37;;;;;;;9.80;6.45;;;;;;;;;;10570292;28;20031;-43
2021/12/26 13:53:37;;;;;;;8.75;6.60;;;;;;;;;;10580713;28;20024;-44
2021/12/26 13:58:39;;;;;;;8.97;6.47;;;;;;;;;;10569549;28;20016;-49
2021/12/26 14:03:46;;;;;;;8.60;6.43;;;;;;;;;;10568376;28;20469;-47
2021/12/26 14:08:54;;;;;;;7.85;6.75;;;;;;;;;;10561262;28;20500;-48
2021/12/26 14:14:06;;;;;;;10.90;6.82;;;;;;;;;;10569948;28;20023;-46
2021/12/26 14:19:11;;;;;;;8.38;6.10;;;;;;;;;;10566506;28;20030;-47
2021/12/26 14:24:17;;;;;;;9.20;6.32;;;;;;;;;;10566228;28;20064;-46
2021/12/26 14:29:22;;;;;;;6.10;5.40;;;;;;;;;;10568044;28;20032;-45
2021/12/26 14:34:25;;;;;;;8.15;5.93;;;;;;;;;;10570727;28;20118;-44
2021/12/26 14:39:34;;;;;;;6.75;5.90;;;;;;;;;;10567385;28;20103;-44
2021/12/26 14:44:42;;;;;;;7.22;5.88;;;;;;;;;;10563820;28;20054;-46
2021/12/26 14:49:45;;;;;;;6.60;5.53;;;;;;;;;;10555808;28;20482;-44
2021/12/26 14:54:50;;;;;;;7.15;5.63;;;;;;;;;;10563006;27;20994;-43
2021/12/26 14:59:53;;;;;;;7.05;5.95;;;;;;;;;;10552326;28;20035;-46
2021/12/26 15:05:03;;;;;;;7.70;5.65;;;;;;;;;;10558288;28;20043;-46
2021/12/26 15:10:05;;;;;;;6.97;6.20;;;;;;;;;;10569381;28;20051;-44
2021/12/26 15:15:15;;;;;;;7.43;5.95;;;;;;;;;;10573337;28;20019;-44
2021/12/26 15:20:21;;;;;;;7.70;6.07;;;;;;;;;;10577283;28;20027;-44
2021/12/26 15:25:29;;;;;;;6.63;6.03;;;;;;;;;;10558485;28;20030;-46
2021/12/26 15:30:29;;;;;;;8.60;6.75;;;;;;;;;;10577663;28;20046;-43
2021/12/26 15:35:31;;;;;;;8.27;6.40;;;;;;;;;;10577342;28;20031;-44
2021/12/26 15:40:32;;;;;;;7.82;6.82;;;;;;;;;;10566307;28;20024;-44
2021/12/26 15:45:32;;;;;;;8.77;6.57;;;;;;;;;;10484457;28;116863;-45
2021/12/26 15:50:33;;;;;;;8.20;6.82;;;;;;;;;;10439938;28;20087;-43
2021/12/26 15:55:33;;;;;;;9.37;6.80;;;;;;;;;;10433626;28;20469;-45
2021/12/26 16:00:33;;;;;;;11.57;6.90;;;;;;;;;;10429709;28;20557;-50
2021/12/26 16:05:34;;;;;;;7.90;6.53;;;;;;;;;;10430202;28;20426;-44
2021/12/26 16:10:34;;;;;;;9.23;6.70;;;;;;;;;;10426987;28;20497;-50
2021/12/26 16:15:35;;;;;;;7.22;6.32;;;;;;;;;;10414363;28;20553;-45
2021/12/26 16:20:36;;;;;;;10.50;7.30;;;;;;;;;;10419795;28;20502;-48
2021/12/26 16:25:36;;;;;;;7.83;6.90;;;;;;;;;;10436093;28;20066;-44
2021/12/26 16:30:38;;;;;;;8.20;6.67;;;;;;;;;;10447503;28;21042;-45
2021/12/26 16:35:40;;;;;;;9.23;6.78;;;;;;;;;;10444933;28;20048;-43
2021/12/26 16:40:42;;;;;;;7.35;6.65;;;;;;;;;;10446955;28;20028;-46
2021/12/26 16:45:43;;;;;;;8.25;6.68;;;;;;;;;;10444981;28;20178;-42
2021/12/26 16:50:43;;;;;;;9.70;7.40;;;;;;;;;;10442264;28;20037;-46
2021/12/26 16:55:44;;;;;;;9.90;7.25;;;;;;;;;;10438358;28;20036;-43
2021/12/26 17:00:44;;;;;;;10.35;7.10;;;;;;;;;;10448029;28;20032;-48
2021/12/26 17:05:45;;;;;;;7.93;6.60;;;;;;;;;;10418086;28;20501;-45
2021/12/26 17:10:45;;;;;;;9.80;7.27;;;;;;;;;;10439206;28;20033;-45
2021/12/26 17:15:46;;;;;;;9.05;7.38;;;;;;;;;;10448045;28;20812;-47
2021/12/26 17:20:46;;;;;;;9.25;7.18;;;;;;;;;;10447298;28;20037;-49
2021/12/26 17:25:47;;;;;;;10.90;7.37;;;;;;;;;;10442083;28;20026;-44
2021/12/26 17:30:47;;;;;;;10.63;7.82;;;;;;;;;;10432030;28;20037;-47
2021/12/26 17:35:48;;;;;;;12.32;7.95;;;;;;;;;;10445560;28;20119;-45
2021/12/26 17:40:48;;;;;;;10.40;8.35;;;;;;;;;;10434575;28;20025;-44
2021/12/26 17:45:49;;;;;;;13.83;8.10;;;;;;;;;;10438236;28;20113;-46
2021/12/26 17:50:49;;;;;;;12.07;8.45;;;;;;;;;;10446034;28;20491;-44
2021/12/26 17:55:51;;;;;;;10.67;8.27;;;;;;;;;;10448207;28;20031;-44
2021/12/26 18:00:52;;;;;;;11.38;8.23;;;;;;;;;;10448940;28;20462;-49
2021/12/26 18:05:53;;;;;;;14.40;8.77;;;;;;;;;;10431110;28;20347;-46
2021/12/26 18:10:53;;;;;;;18.02;8.88;;;;;;;;;;10447155;28;20041;-49
2021/12/26 18:15:54;;;;;;;10.57;8.63;;;;;;;;;;10445807;28;20052;-47
2021/12/26 18:20:56;;;;;;;11.50;8.10;;;;;;;;;;10423034;28;20095;-45
2021/12/26 18:25:57;;;;;;;12.02;8.60;;;;;;;;;;10427779;28;20017;-48
2021/12/26 18:30:57;;;;;;;12.18;8.73;;;;;;;;;;10431068;28;20472;-49
2021/12/26 18:35:58;;;;;;;10.60;8.65;;;;;;;;;;10450630;28;20488;-48
2021/12/26 18:41:01;;;;;;;10.15;8.60;;;;;;;;;;10426250;28;20473;-46
2021/12/26 18:46:02;;;;;;;10.25;8.23;;;;;;;;;;10437480;28;20033;-52
2021/12/26 18:51:04;;;;;;;10.93;8.98;;;;;;;;;;10431844;28;20040;-45
2021/12/26 18:56:04;;;;;;;11.18;9.02;;;;;;;;;;10437602;28;20032;-45
2021/12/26 19:01:05;;;;;;;10.05;8.15;;;;;;;;;;10450769;28;20028;-48
2021/12/26 19:06:07;;;;;;;11.15;8.05;;;;;;;;;;10461969;28;20910;-45
2021/12/26 19:11:08;;;;;;;14.70;9.20;;;;;;;;;;10424916;28;20032;-47
2021/12/26 19:16:09;;;;;;;11.15;8.70;;;;;;;;;;10445787;28;20029;-46
2021/12/26 19:21:10;;;;;;;11.75;8.70;;;;;;;;;;10432950;28;20025;-46
2021/12/26 19:26:10;;;;;;;13.63;9.13;;;;;;;;;;10441514;28;20094;-46
2021/12/26 19:31:12;;;;;;;12.05;8.75;;;;;;;;;;10457744;28;20050;-47
2021/12/26 19:36:15;;;;;;;10.88;8.70;;;;;;;;;;10445470;28;20036;-49
2021/12/26 19:41:16;;;;;;;10.48;8.43;;;;;;;;;;10434105;28;20025;-49
2021/12/26 19:46:22;;;;;;;12.98;8.27;;;;;;;;;;10442749;28;20476;-47
2021/12/26 19:51:26;;;;;;;10.18;7.90;;;;;;;;;;10448033;28;20056;-48
2021/12/26 19:56:27;;;;;;;12.95;8.38;;;;;;;;;;10456325;28;20475;-47
2021/12/26 20:01:27;;;;;;;14.07;8.52;;;;;;;;;;10432048;28;20036;-50
2021/12/26 20:06:28;;;;;;;10.82;8.13;;;;;;;;;;10437904;28;20076;-52
2021/12/26 20:11:28;;;;;;;10.88;8.00;;;;;;;;;;10443443;28;20487;-51
2021/12/26 20:16:28;;;;;;;8.70;7.53;;;;;;;;;;10439721;28;20366;-49
2021/12/26 20:21:29;;;;;;;12.47;8.17;;;;;;;;;;10435816;28;20755;-47
2021/12/26 20:26:29;;;;;;;11.77;9.07;;;;;;;;;;10440079;28;20455;-49
2021/12/26 20:31:30;;;;;;;11.93;7.78;;;;;;;;;;10437430;28;20124;-48
2021/12/26 20:36:30;;;;;;;10.90;8.10;;;;;;;;;;10455469;28;20396;-47
2021/12/26 20:41:33;;;;;;;8.98;7.45;;;;;;;;;;10435747;28;20472;-52
2021/12/26 20:46:34;;;;;;;13.07;8.00;;;;;;;;;;10442868;28;20472;-47
2021/12/26 20:51:35;;;;;;;10.00;7.93;;;;;;;;;;10439992;28;20095;-48
2021/12/26 20:56:35;;;;;;;12.13;8.30;;;;;;;;;;10433518;28;20577;-50
2021/12/26 21:01:36;;;;;;;11.48;8.20;;;;;;;;;;10439993;28;20114;-50
2021/12/26 21:06:36;;;;;;;9.63;7.40;;;;;;;;;;10435010;28;20086;-48
2021/12/26 21:11:37;;;;;;;9.03;7.27;;;;;;;;;;10435267;28;20459;-54
2021/12/26 21:16:37;;;;;;;8.48;7.18;;;;;;;;;;10430018;28;20459;-47
2021/12/26 21:21:38;;;;;;;10.20;7.43;;;;;;;;;;10430860;28;20025;-54
2021/12/26 21:26:38;;;;;;;9.30;7.10;;;;;;;;;;10433127;28;20466;-52
2021/12/26 21:31:38;;;;;;;8.30;7.00;;;;;;;;;;10438756;28;20550;-44
2021/12/26 21:36:39;;;;;;;10.73;7.38;;;;;;;;;;10425308;28;20029;-44
2021/12/26 21:41:39;;;;;;;11.85;7.80;;;;;;;;;;10429866;28;20306;-48
2021/12/26 21:46:40;;;;;;;11.13;7.65;;;;;;;;;;10432954;28;20029;-53
2021/12/26 21:51:42;;;;;;;9.55;8.07;;;;;;;;;;10442024;28;20487;-44
2021/12/26 21:56:42;;;;;;;13.15;9.80;;;;;;;;;;10446463;28;20021;-50
2021/12/26 22:01:47;;;;;;;13.85;10.15;;;;;;;;;;10432829;28;20020;-51
2021/12/26 22:06:48;;;;;;;15.90;10.88;;;;;;;;;;10445402;28;20045;-50
2021/12/26 22:11:48;;;;;;;15.70;10.40;;;;;;;;;;10454953;28;20387;-50
2021/12/26 22:16:49;;;;;;;15.73;10.87;;;;;;;;;;10455123;28;20365;-51
2021/12/26 22:21:49;;;;;;;14.40;10.60;;;;;;;;;;10439418;28;20465;-55
2021/12/26 22:26:49;;;;;;;15.80;10.97;;;;;;;;;;10454650;28;20492;-54
2021/12/26 22:31:50;;;;;;;17.17;11.50;;;;;;;;;;10454724;28;21017;-50
2021/12/26 22:36:57;;;;;;;15.82;11.02;;;;;;;;;;10441819;28;20497;-54
2021/12/26 22:41:58;;;;;;;15.38;11.30;;;;;;;;;;10447299;28;20083;-53
2021/12/26 22:46:58;;;;;;;14.90;10.85;;;;;;;;;;10453521;28;20021;-48
2021/12/26 22:51:59;;;;;;;16.15;10.85;;;;;;;;;;10445296;28;20500;-47
2021/12/26 22:57:00;;;;;;;15.27;11.50;;;;;;;;;;10442148;28;20471;-49
2021/12/26 23:02:00;;;;;;;18.17;11.15;;;;;;;;;;10424827;28;20458;-49
2021/12/26 23:07:01;;;;;;;19.25;12.25;;;;;;;;;;10435950;28;20037;-59
2021/12/26 23:12:02;;;;;;;23.52;12.25;;;;;;;;;;10434130;28;20018;-51
2021/12/26 23:17:03;;;;;;;21.05;11.75;;;;;;;;;;10432542;28;20033;-53
2021/12/26 23:22:03;;;;;;;19.35;11.63;;;;;;;;;;10421509;28;20021;-48
2021/12/26 23:27:04;;;;;;;23.00;13.07;;;;;;;;;;10417763;28;20381;-48
2021/12/26 23:32:04;;;;;;;17.63;11.38;;;;;;;;;;10430536;28;20033;-46
2021/12/26 23:37:05;;;;;;;19.38;11.27;;;;;;;;;;10432534;28;20036;-52
2021/12/26 23:42:13;;;;;;;23.47;10.97;;;;;;;;;;10431102;28;20028;-48
2021/12/26 23:47:15;;;;;;;22.23;12.13;;;;;;;;;;10431210;28;20521;-56
2021/12/26 23:52:15;;;;;;;20.13;11.55;;;;;;;;;;10430178;28;20033;-49
2021/12/26 23:57:16;;;;;;;20.63;11.63;;;;;;;;;;10433161;28;20029;-56
